In Rescue
 
Open Full Screen Window  High Contrast Mode
November 20, 2019 12:59 AM CST
Weather Information
Wind Direction
  ---
Wind Speed
  00 kt (0 mph)
Wind Gust
  00 kt (0 mph)
Altimeter
30.01 in
Visibility
7 SM
Temperature
02° C
36° F
Dewpoint
01° C
34° F
Humidity
93%
1hr Rain Fall
00.00 in.
24hr Rain Fall
00.03 in.
Sky Condition
Overcast @ 2,600 ft
MVFR

METAR KTOB 200659Z AUTO 00000KT 7SM OVC026 02/01 A3001 RMK AO2 PWINO

FAA Disclaimer: The data displayed is for advisory purposes only and is not to be used for flight planning or operations.